sensor_id;sensor_type;location;lat;lon;timestamp;temperature;humidity
68867;SHT30;56451;44.804;20.476;2023-05-29T00:01:15;20.23;68.04
68867;SHT30;56451;44.804;20.476;2023-05-29T00:03:47;20.23;68.15
68867;SHT30;56451;44.804;20.476;2023-05-29T00:06:13;20.23;68.12
68867;SHT30;56451;44.804;20.476;2023-05-29T00:08:39;20.25;68.30
68867;SHT30;56451;44.804;20.476;2023-05-29T00:11:05;20.21;68.40
68867;SHT30;56451;44.804;20.476;2023-05-29T00:13:31;20.23;68.56
68867;SHT30;56451;44.804;20.476;2023-05-29T00:15:57;20.20;68.69
68867;SHT30;56451;44.804;20.476;2023-05-29T00:18:24;20.17;68.86
68867;SHT30;56451;44.804;20.476;2023-05-29T00:20:51;20.17;68.99
68867;SHT30;56451;44.804;20.476;2023-05-29T00:23:18;20.16;69.05
68867;SHT30;56451;44.804;20.476;2023-05-29T00:25:44;20.14;68.98
68867;SHT30;56451;44.804;20.476;2023-05-29T00:28:11;20.17;68.97
68867;SHT30;56451;44.804;20.476;2023-05-29T00:30:38;20.16;68.97
68867;SHT30;56451;44.804;20.476;2023-05-29T00:33:05;20.16;69.04
68867;SHT30;56451;44.804;20.476;2023-05-29T00:35:31;20.13;69.10
68867;SHT30;56451;44.804;20.476;2023-05-29T00:37:57;20.13;68.91
68867;SHT30;56451;44.804;20.476;2023-05-29T00:40:25;20.10;68.71
68867;SHT30;56451;44.804;20.476;2023-05-29T00:42:51;20.10;68.80
68867;SHT30;56451;44.804;20.476;2023-05-29T00:45:17;20.10;68.64
68867;SHT30;56451;44.804;20.476;2023-05-29T00:47:44;20.07;68.59
68867;SHT30;56451;44.804;20.476;2023-05-29T00:50:12;20.09;68.44
68867;SHT30;56451;44.804;20.476;2023-05-29T00:52:41;20.12;68.31
68867;SHT30;56451;44.804;20.476;2023-05-29T00:55:08;20.04;68.42
68867;SHT30;56451;44.804;20.476;2023-05-29T00:57:35;20.03;68.51
68867;SHT30;56451;44.804;20.476;2023-05-29T01:00:03;20.03;68.49
68867;SHT30;56451;44.804;20.476;2023-05-29T01:02:31;20.04;68.57
68867;SHT30;56451;44.804;20.476;2023-05-29T01:04:57;20.01;68.60
68867;SHT30;56451;44.804;20.476;2023-05-29T01:07:23;20.03;68.69
68867;SHT30;56451;44.804;20.476;2023-05-29T01:09:49;20.00;68.55
68867;SHT30;56451;44.804;20.476;2023-05-29T01:12:50;20.01;68.33
68867;SHT30;56451;44.804;20.476;2023-05-29T01:15:51;20.00;68.48
68867;SHT30;56451;44.804;20.476;2023-05-29T01:18:41;19.97;68.67
68867;SHT30;56451;44.804;20.476;2023-05-29T01:24:13;19.92;68.95
68867;SHT30;56451;44.804;20.476;2023-05-29T01:26:42;19.94;69.09
68867;SHT30;56451;44.804;20.476;2023-05-29T01:29:30;19.89;69.18
68867;SHT30;56451;44.804;20.476;2023-05-29T01:31:59;19.90;69.36
68867;SHT30;56451;44.804;20.476;2023-05-29T01:34:27;19.92;69.52
68867;SHT30;56451;44.804;20.476;2023-05-29T01:36:53;19.89;69.62
68867;SHT30;56451;44.804;20.476;2023-05-29T01:39:20;19.86;69.72
68867;SHT30;56451;44.804;20.476;2023-05-29T01:41:47;19.84;69.61
68867;SHT30;56451;44.804;20.476;2023-05-29T01:44:14;19.83;69.28
68867;SHT30;56451;44.804;20.476;2023-05-29T01:46:41;19.83;68.92
68867;SHT30;56451;44.804;20.476;2023-05-29T01:49:09;19.83;68.85
68867;SHT30;56451;44.804;20.476;2023-05-29T01:51:37;19.82;68.80
68867;SHT30;56451;44.804;20.476;2023-05-29T01:54:03;19.82;68.71
68867;SHT30;56451;44.804;20.476;2023-05-29T01:56:30;19.83;68.40
68867;SHT30;56451;44.804;20.476;2023-05-29T01:58:58;19.83;68.21
68867;SHT30;56451;44.804;20.476;2023-05-29T02:01:24;19.77;68.09
68867;SHT30;56451;44.804;20.476;2023-05-29T02:03:50;19.82;67.99
68867;SHT30;56451;44.804;20.476;2023-05-29T02:06:17;19.80;68.06
68867;SHT30;56451;44.804;20.476;2023-05-29T02:08:43;19.79;68.09
68867;SHT30;56451;44.804;20.476;2023-05-29T02:11:09;19.77;68.29
68867;SHT30;56451;44.804;20.476;2023-05-29T02:13:35;19.79;69.01
68867;SHT30;56451;44.804;20.476;2023-05-29T02:16:01;19.77;69.66
68867;SHT30;56451;44.804;20.476;2023-05-29T02:18:27;19.75;68.89
68867;SHT30;56451;44.804;20.476;2023-05-29T02:20:53;19.72;68.86
68867;SHT30;56451;44.804;20.476;2023-05-29T02:23:21;19.67;69.61
68867;SHT30;56451;44.804;20.476;2023-05-29T02:25:50;19.69;70.86
68867;SHT30;56451;44.804;20.476;2023-05-29T02:28:16;19.66;71.21
68867;SHT30;56451;44.804;20.476;2023-05-29T02:30:42;19.67;71.24
68867;SHT30;56451;44.804;20.476;2023-05-29T02:33:08;19.69;71.17
68867;SHT30;56451;44.804;20.476;2023-05-29T02:35:34;19.67;71.17
68867;SHT30;56451;44.804;20.476;2023-05-29T02:38:00;19.67;71.13
68867;SHT30;56451;44.804;20.476;2023-05-29T02:40:26;19.67;71.52
68867;SHT30;56451;44.804;20.476;2023-05-29T02:42:52;19.69;71.74
68867;SHT30;56451;44.804;20.476;2023-05-29T02:45:18;19.67;71.79
68867;SHT30;56451;44.804;20.476;2023-05-29T02:47:43;19.67;71.75
68867;SHT30;56451;44.804;20.476;2023-05-29T02:50:09;19.66;71.85
68867;SHT30;56451;44.804;20.476;2023-05-29T02:52:36;19.67;71.86
68867;SHT30;56451;44.804;20.476;2023-05-29T02:55:05;19.66;71.86
68867;SHT30;56451;44.804;20.476;2023-05-29T02:57:32;19.66;71.87
68867;SHT30;56451;44.804;20.476;2023-05-29T02:59:58;19.66;72.00
68867;SHT30;56451;44.804;20.476;2023-05-29T03:02:24;19.65;72.10
68867;SHT30;56451;44.804;20.476;2023-05-29T03:04:51;19.58;72.41
68867;SHT30;56451;44.804;20.476;2023-05-29T03:07:18;19.58;72.69
68867;SHT30;56451;44.804;20.476;2023-05-29T03:09:44;19.49;72.96
68867;SHT30;56451;44.804;20.476;2023-05-29T03:12:10;19.46;73.27
68867;SHT30;56451;44.804;20.476;2023-05-29T03:14:36;19.42;73.45
68867;SHT30;56451;44.804;20.476;2023-05-29T03:17:06;19.32;73.58
68867;SHT30;56451;44.804;20.476;2023-05-29T03:19:33;19.28;73.88
68867;SHT30;56451;44.804;20.476;2023-05-29T03:21:59;19.28;73.98
68867;SHT30;56451;44.804;20.476;2023-05-29T03:24:25;19.31;74.00
68867;SHT30;56451;44.804;20.476;2023-05-29T03:26:51;19.34;74.08
68867;SHT30;56451;44.804;20.476;2023-05-29T03:29:18;19.35;74.30
68867;SHT30;56451;44.804;20.476;2023-05-29T03:31:44;19.38;74.38
68867;SHT30;56451;44.804;20.476;2023-05-29T03:34:12;19.38;74.46
68867;SHT30;56451;44.804;20.476;2023-05-29T03:36:46;19.45;74.36
68867;SHT30;56451;44.804;20.476;2023-05-29T03:39:12;19.54;74.24
68867;SHT30;56451;44.804;20.476;2023-05-29T03:41:39;19.56;74.16
68867;SHT30;56451;44.804;20.476;2023-05-29T03:44:05;19.55;74.16
68867;SHT30;56451;44.804;20.476;2023-05-29T03:46:31;19.59;74.13
68867;SHT30;56451;44.804;20.476;2023-05-29T03:48:58;19.62;74.00
68867;SHT30;56451;44.804;20.476;2023-05-29T03:51:24;19.63;74.14
68867;SHT30;56451;44.804;20.476;2023-05-29T03:53:53;19.66;74.07
68867;SHT30;56451;44.804;20.476;2023-05-29T03:56:19;19.67;74.05
68867;SHT30;56451;44.804;20.476;2023-05-29T03:58:45;19.69;73.97
68867;SHT30;56451;44.804;20.476;2023-05-29T04:01:13;19.73;73.63
68867;SHT30;56451;44.804;20.476;2023-05-29T04:03:39;19.76;73.46
68867;SHT30;56451;44.804;20.476;2023-05-29T04:06:05;19.77;73.24
68867;SHT30;56451;44.804;20.476;2023-05-29T04:08:32;19.84;72.96
68867;SHT30;56451;44.804;20.476;2023-05-29T04:10:58;19.86;72.61
68867;SHT30;56451;44.804;20.476;2023-05-29T04:13:24;19.87;72.22
68867;SHT30;56451;44.804;20.476;2023-05-29T04:15:50;19.89;72.15
68867;SHT30;56451;44.804;20.476;2023-05-29T04:18:20;19.96;71.77
68867;SHT30;56451;44.804;20.476;2023-05-29T04:20:45;19.93;71.41
68867;SHT30;56451;44.804;20.476;2023-05-29T04:23:13;19.94;71.16
68867;SHT30;56451;44.804;20.476;2023-05-29T04:25:39;19.97;70.92
68867;SHT30;56451;44.804;20.476;2023-05-29T04:28:05;19.96;70.57
68867;SHT30;56451;44.804;20.476;2023-05-29T04:30:32;19.97;70.38
68867;SHT30;56451;44.804;20.476;2023-05-29T04:33:00;19.98;70.17
68867;SHT30;56451;44.804;20.476;2023-05-29T04:35:26;20.01;69.81
68867;SHT30;56451;44.804;20.476;2023-05-29T04:38:00;20.01;69.85
68867;SHT30;56451;44.804;20.476;2023-05-29T04:40:30;20.06;69.82
68867;SHT30;56451;44.804;20.476;2023-05-29T04:42:57;20.07;69.56
68867;SHT30;56451;44.804;20.476;2023-05-29T04:45:27;20.10;69.40
68867;SHT30;56451;44.804;20.476;2023-05-29T04:47:53;20.10;69.04
68867;SHT30;56451;44.804;20.476;2023-05-29T04:50:22;20.12;69.15
68867;SHT30;56451;44.804;20.476;2023-05-29T04:52:54;20.13;69.07
68867;SHT30;56451;44.804;20.476;2023-05-29T04:55:20;20.16;68.93
68867;SHT30;56451;44.804;20.476;2023-05-29T04:57:46;20.21;68.70
68867;SHT30;56451;44.804;20.476;2023-05-29T05:00:13;20.21;68.62
68867;SHT30;56451;44.804;20.476;2023-05-29T05:02:42;20.28;68.37
68867;SHT30;56451;44.804;20.476;2023-05-29T05:05:12;20.28;68.34
68867;SHT30;56451;44.804;20.476;2023-05-29T05:07:38;20.33;68.25
68867;SHT30;56451;44.804;20.476;2023-05-29T05:10:05;20.38;68.17
68867;SHT30;56451;44.804;20.476;2023-05-29T05:12:32;20.41;68.14
68867;SHT30;56451;44.804;20.476;2023-05-29T05:15:00;20.44;68.12
68867;SHT30;56451;44.804;20.476;2023-05-29T05:17:27;20.51;67.87
68867;SHT30;56451;44.804;20.476;2023-05-29T05:19:53;20.55;67.77
68867;SHT30;56451;44.804;20.476;2023-05-29T05:22:19;20.56;67.43
68867;SHT30;56451;44.804;20.476;2023-05-29T05:24:48;20.64;67.15
68867;SHT30;56451;44.804;20.476;2023-05-29T05:27:14;20.71;66.61
68867;SHT30;56451;44.804;20.476;2023-05-29T05:29:40;20.73;66.45
68867;SHT30;56451;44.804;20.476;2023-05-29T05:32:06;20.76;65.97
68867;SHT30;56451;44.804;20.476;2023-05-29T05:34:33;20.82;65.59
68867;SHT30;56451;44.804;20.476;2023-05-29T05:36:59;20.82;65.54
68867;SHT30;56451;44.804;20.476;2023-05-29T05:39:25;20.82;65.58
68867;SHT30;56451;44.804;20.476;2023-05-29T05:41:51;20.90;65.20
68867;SHT30;56451;44.804;20.476;2023-05-29T05:44:34;20.95;64.95
68867;SHT30;56451;44.804;20.476;2023-05-29T05:47:07;20.99;64.84
68867;SHT30;56451;44.804;20.476;2023-05-29T05:49:33;21.02;65.05
68867;SHT30;56451;44.804;20.476;2023-05-29T05:51:59;21.13;65.11
68867;SHT30;56451;44.804;20.476;2023-05-29T05:54:25;21.18;65.23
68867;SHT30;56451;44.804;20.476;2023-05-29T05:56:51;21.22;65.37
68867;SHT30;56451;44.804;20.476;2023-05-29T05:59:19;21.29;65.07
68867;SHT30;56451;44.804;20.476;2023-05-29T06:01:45;21.30;64.97
68867;SHT30;56451;44.804;20.476;2023-05-29T06:04:11;21.34;64.57
68867;SHT30;56451;44.804;20.476;2023-05-29T06:06:38;21.37;64.37
68867;SHT30;56451;44.804;20.476;2023-05-29T06:09:03;21.41;64.06
68867;SHT30;56451;44.804;20.476;2023-05-29T06:11:30;21.43;63.84
68867;SHT30;56451;44.804;20.476;2023-05-29T06:13:58;21.47;63.22
68867;SHT30;56451;44.804;20.476;2023-05-29T06:16:28;21.50;63.06
68867;SHT30;56451;44.804;20.476;2023-05-29T06:18:54;21.54;62.96
68867;SHT30;56451;44.804;20.476;2023-05-29T06:21:20;21.55;63.18
68867;SHT30;56451;44.804;20.476;2023-05-29T06:23:55;21.61;63.17
68867;SHT30;56451;44.804;20.476;2023-05-29T06:26:21;21.62;63.30
68867;SHT30;56451;44.804;20.476;2023-05-29T06:28:49;21.68;62.84
68867;SHT30;56451;44.804;20.476;2023-05-29T06:31:15;21.71;62.75
68867;SHT30;56451;44.804;20.476;2023-05-29T06:33:41;21.75;62.61
68867;SHT30;56451;44.804;20.476;2023-05-29T06:36:08;21.81;62.37
68867;SHT30;56451;44.804;20.476;2023-05-29T06:38:35;21.85;62.37
68867;SHT30;56451;44.804;20.476;2023-05-29T06:41:01;21.91;61.70
68867;SHT30;56451;44.804;20.476;2023-05-29T06:43:28;21.95;61.63
68867;SHT30;56451;44.804;20.476;2023-05-29T06:45:57;22.01;61.83
68867;SHT30;56451;44.804;20.476;2023-05-29T06:48:23;22.04;61.69
68867;SHT30;56451;44.804;20.476;2023-05-29T06:50:50;22.06;61.54
68867;SHT30;56451;44.804;20.476;2023-05-29T06:53:36;22.15;61.27
68867;SHT30;56451;44.804;20.476;2023-05-29T06:56:02;22.20;60.40
68867;SHT30;56451;44.804;20.476;2023-05-29T06:58:30;22.28;60.67
68867;SHT30;56451;44.804;20.476;2023-05-29T07:00:57;22.32;60.54
68867;SHT30;56451;44.804;20.476;2023-05-29T07:03:52;22.36;60.55
68867;SHT30;56451;44.804;20.476;2023-05-29T07:06:19;22.43;60.51
68867;SHT30;56451;44.804;20.476;2023-05-29T07:08:45;22.47;60.65
68867;SHT30;56451;44.804;20.476;2023-05-29T07:11:12;22.53;60.50
68867;SHT30;56451;44.804;20.476;2023-05-29T07:13:38;22.59;60.24
68867;SHT30;56451;44.804;20.476;2023-05-29T07:16:05;22.66;60.38
68867;SHT30;56451;44.804;20.476;2023-05-29T07:18:34;22.73;60.41
68867;SHT30;56451;44.804;20.476;2023-05-29T07:21:01;22.83;60.16
68867;SHT30;56451;44.804;20.476;2023-05-29T07:23:29;22.91;59.88
68867;SHT30;56451;44.804;20.476;2023-05-29T07:25:56;23.00;59.81
68867;SHT30;56451;44.804;20.476;2023-05-29T07:28:24;23.08;59.79
68867;SHT30;56451;44.804;20.476;2023-05-29T07:30:51;23.14;59.38
68867;SHT30;56451;44.804;20.476;2023-05-29T07:33:18;23.23;59.21
68867;SHT30;56451;44.804;20.476;2023-05-29T07:35:44;23.31;59.19
68867;SHT30;56451;44.804;20.476;2023-05-29T07:38:10;23.33;59.35
68867;SHT30;56451;44.804;20.476;2023-05-29T07:40:38;23.45;59.21
68867;SHT30;56451;44.804;20.476;2023-05-29T07:43:04;23.51;58.97
68867;SHT30;56451;44.804;20.476;2023-05-29T07:45:50;23.56;58.73
68867;SHT30;56451;44.804;20.476;2023-05-29T07:48:16;23.65;58.43
68867;SHT30;56451;44.804;20.476;2023-05-29T07:50:43;23.70;58.79
68867;SHT30;56451;44.804;20.476;2023-05-29T07:53:09;23.79;58.56
68867;SHT30;56451;44.804;20.476;2023-05-29T07:55:37;23.79;58.03
68867;SHT30;56451;44.804;20.476;2023-05-29T07:58:04;23.70;57.97
68867;SHT30;56451;44.804;20.476;2023-05-29T08:00:30;23.67;58.42
68867;SHT30;56451;44.804;20.476;2023-05-29T08:02:56;23.58;58.88
68867;SHT30;56451;44.804;20.476;2023-05-29T08:05:41;23.56;58.53
68867;SHT30;56451;44.804;20.476;2023-05-29T08:08:11;23.46;59.17
68867;SHT30;56451;44.804;20.476;2023-05-29T08:10:39;23.46;59.59
68867;SHT30;56451;44.804;20.476;2023-05-29T08:13:05;23.49;60.13
68867;SHT30;56451;44.804;20.476;2023-05-29T08:15:33;23.56;60.24
68867;SHT30;56451;44.804;20.476;2023-05-29T08:18:00;23.70;59.67
68867;SHT30;56451;44.804;20.476;2023-05-29T08:20:26;23.76;59.18
68867;SHT30;56451;44.804;20.476;2023-05-29T08:22:52;23.79;59.16
68867;SHT30;56451;44.804;20.476;2023-05-29T08:25:18;23.70;59.41
68867;SHT30;56451;44.804;20.476;2023-05-29T08:27:44;23.66;59.65
68867;SHT30;56451;44.804;20.476;2023-05-29T08:30:11;23.60;59.70
68867;SHT30;56451;44.804;20.476;2023-05-29T08:32:38;23.56;60.07
68867;SHT30;56451;44.804;20.476;2023-05-29T08:35:04;23.48;60.21
68867;SHT30;56451;44.804;20.476;2023-05-29T08:37:31;23.56;59.71
68867;SHT30;56451;44.804;20.476;2023-05-29T08:39:57;23.58;59.06
68867;SHT30;56451;44.804;20.476;2023-05-29T08:42:29;23.63;59.61
68867;SHT30;56451;44.804;20.476;2023-05-29T08:45:02;23.67;59.87
68867;SHT30;56451;44.804;20.476;2023-05-29T08:47:33;23.70;59.94
68867;SHT30;56451;44.804;20.476;2023-05-29T08:50:00;23.81;59.72
68867;SHT30;56451;44.804;20.476;2023-05-29T09:00:30;24.08;58.72
68867;SHT30;56451;44.804;20.476;2023-05-29T09:02:57;24.11;58.34
68867;SHT30;56451;44.804;20.476;2023-05-29T09:05:25;24.14;58.75
68867;SHT30;56451;44.804;20.476;2023-05-29T09:07:56;24.21;58.84
68867;SHT30;56451;44.804;20.476;2023-05-29T09:10:22;24.29;58.34
68867;SHT30;56451;44.804;20.476;2023-05-29T09:12:51;24.37;58.33
68867;SHT30;56451;44.804;20.476;2023-05-29T09:15:21;24.45;57.82
68867;SHT30;56451;44.804;20.476;2023-05-29T09:17:54;24.52;56.88
68867;SHT30;56451;44.804;20.476;2023-05-29T09:20:22;24.54;57.01
68867;SHT30;56451;44.804;20.476;2023-05-29T09:23:00;24.57;57.20
68867;SHT30;56451;44.804;20.476;2023-05-29T09:25:28;24.62;56.66
68867;SHT30;56451;44.804;20.476;2023-05-29T09:28:04;24.61;55.90
68867;SHT30;56451;44.804;20.476;2023-05-29T09:30:40;24.65;55.19
68867;SHT30;56451;44.804;20.476;2023-05-29T09:33:15;24.72;54.87
68867;SHT30;56451;44.804;20.476;2023-05-29T09:35:49;24.75;55.52
68867;SHT30;56451;44.804;20.476;2023-05-29T09:38:17;24.76;54.96
68867;SHT30;56451;44.804;20.476;2023-05-29T09:40:44;24.80;55.88
68867;SHT30;56451;44.804;20.476;2023-05-29T09:43:17;24.82;55.71
68867;SHT30;56451;44.804;20.476;2023-05-29T09:45:48;24.89;55.67
68867;SHT30;56451;44.804;20.476;2023-05-29T09:48:21;24.95;55.57
68867;SHT30;56451;44.804;20.476;2023-05-29T09:50:48;25.00;55.01
68867;SHT30;56451;44.804;20.476;2023-05-29T09:53:19;25.03;53.14
68867;SHT30;56451;44.804;20.476;2023-05-29T09:55:47;25.07;52.87
68867;SHT30;56451;44.804;20.476;2023-05-29T09:58:18;25.12;52.99
68867;SHT30;56451;44.804;20.476;2023-05-29T10:00:45;25.13;54.00
68867;SHT30;56451;44.804;20.476;2023-05-29T10:03:11;25.19;52.34
68867;SHT30;56451;44.804;20.476;2023-05-29T10:05:42;25.22;52.36
68867;SHT30;56451;44.804;20.476;2023-05-29T10:08:13;25.28;51.51
68867;SHT30;56451;44.804;20.476;2023-05-29T10:10:44;25.34;52.28
68867;SHT30;56451;44.804;20.476;2023-05-29T10:13:13;25.40;51.67
68867;SHT30;56451;44.804;20.476;2023-05-29T10:15:45;25.47;50.76
68867;SHT30;56451;44.804;20.476;2023-05-29T10:18:13;25.54;51.28
68867;SHT30;56451;44.804;20.476;2023-05-29T10:20:42;25.60;50.74
68867;SHT30;56451;44.804;20.476;2023-05-29T10:23:11;25.67;50.74
68867;SHT30;56451;44.804;20.476;2023-05-29T10:25:39;25.74;50.58
68867;SHT30;56451;44.804;20.476;2023-05-29T10:28:07;25.74;49.37
68867;SHT30;56451;44.804;20.476;2023-05-29T10:30:52;25.78;49.82
68867;SHT30;56451;44.804;20.476;2023-05-29T10:38:44;25.93;49.45
68867;SHT30;56451;44.804;20.476;2023-05-29T10:43:54;26.01;49.28
68867;SHT30;56451;44.804;20.476;2023-05-29T10:46:21;26.03;49.79
68867;SHT30;56451;44.804;20.476;2023-05-29T10:48:53;26.03;49.73
68867;SHT30;56451;44.804;20.476;2023-05-29T10:51:25;26.11;49.19
68867;SHT30;56451;44.804;20.476;2023-05-29T10:53:53;26.08;48.21
68867;SHT30;56451;44.804;20.476;2023-05-29T10:56:24;26.13;49.25
68867;SHT30;56451;44.804;20.476;2023-05-29T10:58:55;26.19;49.13
68867;SHT30;56451;44.804;20.476;2023-05-29T11:01:24;26.22;49.49
68867;SHT30;56451;44.804;20.476;2023-05-29T11:06:42;26.36;49.16
68867;SHT30;56451;44.804;20.476;2023-05-29T11:09:28;26.41;49.08
68867;SHT30;56451;44.804;20.476;2023-05-29T11:12:21;26.47;48.43
68867;SHT30;56451;44.804;20.476;2023-05-29T11:15:11;26.49;48.87
68867;SHT30;56451;44.804;20.476;2023-05-29T11:17:44;26.51;48.60
68867;SHT30;56451;44.804;20.476;2023-05-29T11:20:27;26.54;48.23
68867;SHT30;56451;44.804;20.476;2023-05-29T11:25:27;26.53;48.83
68867;SHT30;56451;44.804;20.476;2023-05-29T11:27:56;26.54;48.78
68867;SHT30;56451;44.804;20.476;2023-05-29T11:30:24;26.47;49.20
68867;SHT30;56451;44.804;20.476;2023-05-29T11:32:52;26.50;49.01
68867;SHT30;56451;44.804;20.476;2023-05-29T11:35:24;26.47;47.80
68867;SHT30;56451;44.804;20.476;2023-05-29T11:37:52;26.43;48.18
68867;SHT30;56451;44.804;20.476;2023-05-29T11:40:20;26.43;48.83
68867;SHT30;56451;44.804;20.476;2023-05-29T11:42:47;26.37;47.38
68867;SHT30;56451;44.804;20.476;2023-05-29T11:45:19;26.30;48.11
68867;SHT30;56451;44.804;20.476;2023-05-29T11:47:59;26.32;48.97
68867;SHT30;56451;44.804;20.476;2023-05-29T11:50:27;26.33;49.27
68867;SHT30;56451;44.804;20.476;2023-05-29T11:52:56;26.39;49.08
68867;SHT30;56451;44.804;20.476;2023-05-29T11:55:24;26.39;49.01
68867;SHT30;56451;44.804;20.476;2023-05-29T11:57:55;26.41;49.16
68867;SHT30;56451;44.804;20.476;2023-05-29T12:00:22;26.49;49.25
68867;SHT30;56451;44.804;20.476;2023-05-29T12:02:48;26.51;49.15
68867;SHT30;56451;44.804;20.476;2023-05-29T12:05:17;26.54;48.98
68867;SHT30;56451;44.804;20.476;2023-05-29T12:07:56;26.59;48.72
68867;SHT30;56451;44.804;20.476;2023-05-29T12:10:23;26.57;47.55
68867;SHT30;56451;44.804;20.476;2023-05-29T12:12:55;26.54;48.42
68867;SHT30;56451;44.804;20.476;2023-05-29T12:15:22;26.50;47.71
68867;SHT30;56451;44.804;20.476;2023-05-29T12:17:50;26.47;47.69
68867;SHT30;56451;44.804;20.476;2023-05-29T12:20:17;26.47;47.92
68867;SHT30;56451;44.804;20.476;2023-05-29T12:22:45;26.47;46.45
68867;SHT30;56451;44.804;20.476;2023-05-29T12:25:16;26.37;46.57
68867;SHT30;56451;44.804;20.476;2023-05-29T12:27:46;26.16;45.79
68867;SHT30;56451;44.804;20.476;2023-05-29T12:32:47;25.80;47.16
68867;SHT30;56451;44.804;20.476;2023-05-29T12:35:24;25.61;47.23
68867;SHT30;56451;44.804;20.476;2023-05-29T12:38:01;25.55;46.86
68867;SHT30;56451;44.804;20.476;2023-05-29T12:40:30;25.41;47.14
68867;SHT30;56451;44.804;20.476;2023-05-29T12:43:02;25.28;47.09
68867;SHT30;56451;44.804;20.476;2023-05-29T12:45:30;25.20;47.42
68867;SHT30;56451;44.804;20.476;2023-05-29T12:48:01;25.13;47.28
68867;SHT30;56451;44.804;20.476;2023-05-29T12:55:38;24.86;48.75
68867;SHT30;56451;44.804;20.476;2023-05-29T12:58:07;24.80;48.08
68867;SHT30;56451;44.804;20.476;2023-05-29T13:00:35;24.71;48.53
68867;SHT30;56451;44.804;20.476;2023-05-29T13:03:02;24.62;48.51
68867;SHT30;56451;44.804;20.476;2023-05-29T13:05:29;24.54;48.88
68867;SHT30;56451;44.804;20.476;2023-05-29T13:07:57;24.51;49.07
68867;SHT30;56451;44.804;20.476;2023-05-29T13:10:25;24.45;49.31
68867;SHT30;56451;44.804;20.476;2023-05-29T13:12:53;24.41;49.00
68867;SHT30;56451;44.804;20.476;2023-05-29T13:15:22;24.38;49.42
68867;SHT30;56451;44.804;20.476;2023-05-29T13:17:49;24.22;50.28
68867;SHT30;56451;44.804;20.476;2023-05-29T13:20:16;24.03;51.40
68867;SHT30;56451;44.804;20.476;2023-05-29T13:22:45;23.83;52.45
68867;SHT30;56451;44.804;20.476;2023-05-29T13:25:13;23.67;52.77
68867;SHT30;56451;44.804;20.476;2023-05-29T13:27:44;23.60;52.77
68867;SHT30;56451;44.804;20.476;2023-05-29T13:30:11;23.56;53.25
68867;SHT30;56451;44.804;20.476;2023-05-29T13:32:38;23.49;53.38
68867;SHT30;56451;44.804;20.476;2023-05-29T13:35:05;23.45;53.84
68867;SHT30;56451;44.804;20.476;2023-05-29T13:37:32;23.43;54.34
68867;SHT30;56451;44.804;20.476;2023-05-29T13:40:00;23.41;54.98
68867;SHT30;56451;44.804;20.476;2023-05-29T13:42:26;23.37;56.00
68867;SHT30;56451;44.804;20.476;2023-05-29T13:44:53;23.28;55.86
68867;SHT30;56451;44.804;20.476;2023-05-29T13:47:20;23.25;56.20
68867;SHT30;56451;44.804;20.476;2023-05-29T13:49:47;23.22;56.97
68867;SHT30;56451;44.804;20.476;2023-05-29T13:52:13;23.19;56.48
68867;SHT30;56451;44.804;20.476;2023-05-29T13:54:40;23.18;57.43
68867;SHT30;56451;44.804;20.476;2023-05-29T13:57:06;23.15;57.39
68867;SHT30;56451;44.804;20.476;2023-05-29T13:59:34;23.18;57.80
68867;SHT30;56451;44.804;20.476;2023-05-29T14:02:02;23.15;58.04
68867;SHT30;56451;44.804;20.476;2023-05-29T14:04:32;23.14;57.78
68867;SHT30;56451;44.804;20.476;2023-05-29T14:07:01;23.11;58.29
68867;SHT30;56451;44.804;20.476;2023-05-29T14:09:28;23.10;58.70
68867;SHT30;56451;44.804;20.476;2023-05-29T14:11:59;23.02;58.93
68867;SHT30;56451;44.804;20.476;2023-05-29T14:14:26;23.01;59.11
68867;SHT30;56451;44.804;20.476;2023-05-29T14:16:54;23.01;59.11
68867;SHT30;56451;44.804;20.476;2023-05-29T14:19:28;23.04;59.49
68867;SHT30;56451;44.804;20.476;2023-05-29T14:21:55;23.01;59.34
68867;SHT30;56451;44.804;20.476;2023-05-29T14:24:33;22.97;59.54
68867;SHT30;56451;44.804;20.476;2023-05-29T14:27:37;22.91;59.64
68867;SHT30;56451;44.804;20.476;2023-05-29T14:30:14;22.84;59.60
68867;SHT30;56451;44.804;20.476;2023-05-29T14:32:57;22.77;59.96
68867;SHT30;56451;44.804;20.476;2023-05-29T14:35:32;22.68;60.43
68867;SHT30;56451;44.804;20.476;2023-05-29T14:38:05;22.64;60.27
68867;SHT30;56451;44.804;20.476;2023-05-29T14:40:31;22.54;60.57
68867;SHT30;56451;44.804;20.476;2023-05-29T14:43:00;22.49;61.23
68867;SHT30;56451;44.804;20.476;2023-05-29T14:45:26;22.43;61.62
68867;SHT30;56451;44.804;20.476;2023-05-29T14:47:53;22.39;61.98
68867;SHT30;56451;44.804;20.476;2023-05-29T14:50:19;22.35;62.33
68867;SHT30;56451;44.804;20.476;2023-05-29T14:52:46;22.33;62.62
68867;SHT30;56451;44.804;20.476;2023-05-29T14:55:13;22.39;62.56
68867;SHT30;56451;44.804;20.476;2023-05-29T14:57:43;22.36;62.75
68867;SHT30;56451;44.804;20.476;2023-05-29T15:00:10;22.43;62.85
68867;SHT30;56451;44.804;20.476;2023-05-29T15:02:36;22.43;62.86
68867;SHT30;56451;44.804;20.476;2023-05-29T15:05:06;22.45;62.55
68867;SHT30;56451;44.804;20.476;2023-05-29T15:07:36;22.45;63.09
68867;SHT30;56451;44.804;20.476;2023-05-29T15:10:03;22.45;63.26
68867;SHT30;56451;44.804;20.476;2023-05-29T15:12:32;22.46;63.52
68867;SHT30;56451;44.804;20.476;2023-05-29T15:14:59;22.43;63.73
68867;SHT30;56451;44.804;20.476;2023-05-29T15:17:26;22.47;64.12
68867;SHT30;56451;44.804;20.476;2023-05-29T15:19:52;22.49;64.22
68867;SHT30;56451;44.804;20.476;2023-05-29T15:22:19;22.50;64.25
68867;SHT30;56451;44.804;20.476;2023-05-29T15:25:19;22.57;63.97
68867;SHT30;56451;44.804;20.476;2023-05-29T15:27:46;22.57;64.12
68867;SHT30;56451;44.804;20.476;2023-05-29T15:30:17;22.57;63.97
68867;SHT30;56451;44.804;20.476;2023-05-29T15:32:45;22.57;62.78
68867;SHT30;56451;44.804;20.476;2023-05-29T15:35:13;22.56;62.96
68867;SHT30;56451;44.804;20.476;2023-05-29T15:38:11;22.57;62.89
68867;SHT30;56451;44.804;20.476;2023-05-29T15:40:53;22.53;63.41
68867;SHT30;56451;44.804;20.476;2023-05-29T15:43:29;22.54;63.81
68867;SHT30;56451;44.804;20.476;2023-05-29T15:46:01;22.54;64.08
68867;SHT30;56451;44.804;20.476;2023-05-29T15:48:29;22.49;63.90
68867;SHT30;56451;44.804;20.476;2023-05-29T15:51:22;22.47;64.01
68867;SHT30;56451;44.804;20.476;2023-05-29T15:53:49;22.50;63.94
68867;SHT30;56451;44.804;20.476;2023-05-29T15:56:15;22.50;63.31
68867;SHT30;56451;44.804;20.476;2023-05-29T15:58:42;22.52;63.33